Hlavní strana
METAR-TAF:

METAR-TAF

Letiště :

Erfurt, Německo

zeměpisná šířka: 50-59N, zeměpisná délka: 010-58E, výška: 315 m

Aktuální stav počasí

Zpráva byla vytvořena před 9 minutami, v 17:20 UTC
Severoseverovýchodní vítr 2 kt
Teplota 0°C
Vlhkost vzduchu 93%
Tlak 1033 hPa
Viditelnost: 5000 m
Skoro jasno ve výšce 700 ft
kouřmo

METAR: EDDE 171720Z 02002KT 5000 BR FEW007 00/M01 Q1033 TEMPO 4000 BR BKN007

Čas: 18:29 (17:29 UTC)

Předpověď počasí

Zpráva byla vytvořena před 6 hodinami a 25 minutami, v 11:04 UTC
Předpověď platná od 17 v 12 UTC do 18 v 12 UTC
Severovýchodní vítr 8 kt
Viditelnost: 0500 m
Zataženo ve výšce 100 ft
mrznoucí mlha
Změna
od 17 v 12 UTC do 17 v 15 UTC
Viditelnost: 6000 m
Polojasno ve výšce 300 ft
Změna
od 17 v 21 UTC do 17 v 24 UTC
Viditelnost: 2000 m
kouřmo
Dočasný
od 18 v 00 UTC do 18 v 09 UTC
Viditelnost: 1200 m
chuchvalce mlhy

TAF: EDDE 171104Z 1712/1812 04008KT 0500 FZFG OVC001 BECMG 1712/1715 6000 NSW SCT003 BECMG 1721/1724 2000 BR TEMPO 1800/1809 1200 BCFG

Stav a předpovědi počasí z více než 4 000 letišť (zprávy METAR a TAF).

Červené a žluté tečky na mapě představují dostupné meteorologické stanice.

Když kurzor umístíte na tečku, zobrazí se název stanice.

Pak kliknutím zobrazíte stav a předpověď počasí.

Chcete-li změnit mapu, kliknutím na zelené tlačítko se znaménkem +mapu přiblížíte, kliknutím na zelené tlačítko se znaménkem – mapu oddálíte a kliknutím na zelené šipky přejdete na sousední mapy.


METAR-TAF: